createdAt,value
2019-05-30T00:42:04.391Z,10.65
2019-05-30T00:44:35.069Z,11.70
2019-05-30T00:47:06.429Z,9.80
2019-05-30T00:49:37.286Z,9.60
2019-05-30T00:52:07.958Z,14.98
2019-05-30T00:54:38.616Z,13.18
2019-05-30T00:57:13.038Z,10.25
2019-05-30T00:59:45.106Z,15.20
2019-05-30T01:02:16.082Z,12.15
2019-05-30T01:04:47.034Z,12.80
2019-05-30T01:07:20.846Z,11.80
2019-05-30T01:09:52.497Z,11.08
2019-05-30T01:12:23.569Z,10.63
2019-05-30T01:14:54.832Z,11.93
2019-05-30T01:17:25.703Z,11.45
2019-05-30T01:19:56.936Z,12.33
2019-05-30T01:22:27.845Z,11.15
2019-05-30T01:24:59.165Z,9.98
2019-05-30T01:27:30.364Z,9.33
2019-05-30T01:30:01.645Z,13.10
2019-05-30T01:32:32.696Z,10.58
2019-05-30T01:35:03.883Z,13.58
2019-05-30T01:37:34.801Z,10.78
2019-05-30T01:40:06.461Z,10.88
2019-05-30T01:42:38.823Z,14.23
2019-05-30T01:45:10.209Z,12.98
2019-05-30T01:47:41.200Z,13.43
2019-05-30T01:50:12.195Z,10.58
2019-05-30T01:52:43.417Z,12.75
2019-05-30T01:55:14.668Z,12.63
2019-05-30T01:57:45.576Z,11.10
2019-05-30T02:00:21.287Z,10.45
2019-05-30T02:02:49.635Z,10.55
2019-05-30T02:05:21.955Z,10.63
2019-05-30T02:07:52.725Z,15.95
2019-05-30T02:10:23.427Z,12.33
2019-05-30T02:12:54.287Z,10.85
2019-05-30T02:15:25.157Z,14.05
2019-05-30T02:17:56.038Z,14.13
2019-05-30T02:20:26.942Z,10.82
2019-05-30T02:22:58.060Z,10.82
2019-05-30T02:25:28.867Z,11.45
2019-05-30T02:28:00.147Z,11.38
2019-05-30T02:30:31.042Z,11.40
2019-05-30T02:33:05.158Z,13.38
2019-05-30T02:35:36.138Z,11.15
2019-05-30T02:38:07.448Z,11.25
2019-05-30T02:40:39.533Z,12.65
2019-05-30T02:43:12.256Z,12.65
2019-05-30T02:45:43.289Z,10.93
2019-05-30T02:48:14.158Z,11.05
2019-05-30T02:50:45.556Z,10.75
2019-05-30T02:53:16.556Z,11.68
2019-05-30T02:55:47.436Z,10.93
2019-05-30T02:58:18.252Z,11.90
2019-05-30T03:00:48.923Z,10.40
2019-05-30T03:03:19.854Z,11.45
2019-05-30T03:05:50.662Z,10.28
2019-05-30T03:08:21.515Z,10.55
2019-05-30T03:10:53.786Z,12.37
2019-05-30T03:13:24.787Z,9.65
2019-05-30T03:15:55.551Z,9.60
2019-05-30T03:18:26.336Z,10.75
2019-05-30T03:20:57.223Z,14.38
2019-05-30T03:23:28.752Z,12.15
2019-05-30T03:25:59.554Z,9.83
2019-05-30T03:28:30.522Z,10.18
2019-05-30T03:31:04.384Z,9.98
2019-05-30T03:33:41.063Z,9.75
2019-05-30T03:36:14.468Z,13.10
2019-05-30T03:38:37.942Z,11.75
2019-05-30T03:41:09.948Z,10.55
2019-05-30T03:43:41.116Z,11.83
2019-05-30T03:46:15.737Z,10.55
2019-05-30T03:48:46.510Z,14.15
2019-05-30T03:51:17.745Z,11.83
2019-05-30T03:53:48.555Z,10.38
2019-05-30T03:56:21.954Z,8.73
2019-05-30T03:58:55.344Z,8.80
2019-05-30T04:01:28.665Z,8.30
2019-05-30T04:04:01.992Z,7.30
2019-05-30T04:06:34.893Z,12.23
2019-05-30T04:09:09.900Z,10.48
2019-05-30T04:11:43.319Z,8.25
2019-05-30T04:14:16.544Z,8.90
2019-05-30T04:16:47.386Z,8.53
2019-05-30T04:19:20.057Z,11.93
2019-05-30T04:21:50.352Z,9.90
2019-05-30T04:24:23.569Z,8.98
2019-05-30T04:26:54.280Z,8.38
2019-05-30T04:29:25.245Z,8.73
2019-05-30T04:31:56.205Z,7.97
2019-05-30T04:34:27.102Z,7.33
2019-05-30T04:36:57.872Z,9.63
2019-05-30T04:39:28.623Z,8.28
2019-05-30T04:41:59.303Z,6.58
2019-05-30T04:44:30.047Z,8.30
2019-05-30T04:47:00.810Z,6.72
2019-05-30T04:49:31.609Z,7.60
2019-05-30T04:52:02.358Z,6.40
2019-05-30T04:54:33.194Z,7.40
2019-05-30T05:10:49.580Z,7.47
2019-05-30T05:13:22.440Z,6.42
2019-05-30T05:15:53.040Z,8.15
2019-05-30T05:18:23.733Z,8.13
2019-05-30T05:20:54.933Z,8.60
2019-05-30T05:23:25.896Z,6.50
2019-05-30T05:26:01.019Z,6.58
2019-05-30T05:28:28.921Z,6.53
2019-05-30T05:30:59.776Z,7.97
2019-05-30T05:33:30.546Z,6.05
2019-05-30T05:36:01.322Z,7.70
2019-05-30T05:38:32.151Z,7.25
2019-05-30T05:41:02.903Z,6.62
2019-05-30T05:43:33.840Z,7.53
2019-05-30T05:46:04.799Z,7.05
2019-05-30T05:48:35.670Z,9.55
2019-05-30T05:51:06.588Z,8.28
2019-05-30T05:53:37.261Z,6.87
2019-05-30T05:56:08.149Z,7.28
2019-05-30T05:58:38.976Z,6.10
2019-05-30T06:01:09.889Z,9.03
2019-05-30T06:03:40.826Z,9.58
2019-05-30T06:06:11.733Z,7.67
2019-05-30T06:08:42.475Z,7.10
2019-05-30T06:11:13.266Z,7.10
2019-05-30T06:13:44.043Z,10.10
2019-05-30T06:16:15.031Z,6.05
2019-05-30T06:18:45.890Z,6.75
2019-05-30T06:21:17.230Z,6.87
2019-05-30T06:23:48.423Z,5.87
2019-05-30T06:26:19.906Z,7.53
2019-05-30T06:28:50.851Z,6.20
2019-05-30T06:31:22.479Z,6.87
2019-05-30T06:33:54.367Z,6.90
2019-05-30T06:36:25.214Z,5.75
2019-05-30T06:38:55.844Z,6.67
2019-05-30T06:41:27.655Z,7.05
2019-05-30T06:43:58.511Z,7.22
2019-05-30T06:46:30.462Z,6.00
2019-05-30T06:49:01.583Z,5.87
2019-05-30T06:51:32.829Z,8.73
2019-05-30T06:54:05.400Z,5.87
2019-05-30T06:56:36.097Z,4.33
2019-05-30T06:59:07.407Z,6.15
2019-05-30T07:01:38.729Z,3.22
2019-05-30T07:04:09.922Z,2.37
2019-05-30T07:06:41.589Z,6.70
2019-05-30T07:09:12.557Z,3.90
2019-05-30T07:11:43.347Z,3.08
2019-05-30T07:14:14.246Z,3.40
2019-05-30T07:16:45.182Z,2.37
2019-05-30T07:19:16.023Z,2.85
2019-05-30T07:21:46.996Z,3.42
2019-05-30T07:24:17.822Z,2.55
2019-05-30T07:26:48.731Z,4.30
2019-05-30T07:29:19.570Z,3.05
2019-05-30T07:31:50.339Z,3.75
2019-05-30T07:34:21.037Z,4.17
2019-05-30T07:36:52.387Z,3.70
2019-05-30T07:39:26.338Z,3.70
2019-05-30T07:42:05.805Z,4.17
2019-05-30T07:44:28.686Z,4.45
2019-05-30T07:46:59.639Z,5.75
2019-05-30T07:49:30.506Z,5.37
2019-05-30T07:52:01.458Z,6.33
2019-05-30T07:54:33.052Z,3.80
2019-05-30T07:57:04.078Z,5.90
2019-05-30T07:59:34.871Z,3.25
2019-05-30T08:02:05.565Z,5.08
2019-05-30T08:04:36.224Z,3.02
2019-05-30T08:07:06.987Z,5.00
2019-05-30T08:09:37.659Z,4.60
2019-05-30T08:12:08.354Z,5.53
2019-05-30T08:14:39.022Z,4.00
2019-05-30T08:17:09.723Z,4.55
2019-05-30T08:19:41.125Z,4.17
2019-05-30T08:22:11.829Z,7.05
2019-05-30T08:24:42.576Z,6.62
2019-05-30T08:27:13.318Z,5.72
2019-05-30T08:29:44.042Z,4.53
2019-05-30T08:32:14.818Z,3.80
2019-05-30T08:34:45.493Z,6.40
2019-05-30T08:37:17.463Z,8.63
2019-05-30T08:39:48.203Z,4.97
2019-05-30T08:42:19.086Z,7.37
2019-05-30T08:44:49.891Z,4.83
2019-05-30T08:47:20.659Z,5.80
2019-05-30T08:49:51.362Z,3.95
2019-05-30T08:52:22.239Z,4.22
2019-05-30T08:54:53.166Z,4.17
2019-05-30T08:57:24.003Z,4.35
2019-05-30T08:59:54.908Z,6.55
2019-05-30T09:02:25.736Z,5.30
2019-05-30T09:04:56.852Z,5.30
2019-05-30T09:07:27.678Z,5.50
2019-05-30T09:09:59.897Z,7.47
2019-05-30T09:12:30.880Z,5.35
2019-05-30T09:15:01.596Z,6.83
2019-05-30T09:17:32.444Z,7.55
2019-05-30T09:20:03.348Z,11.08
2019-05-30T09:22:34.035Z,6.33
2019-05-30T09:25:06.219Z,8.00
2019-05-30T09:27:38.897Z,6.87
2019-05-30T09:30:10.153Z,6.85
2019-05-30T09:32:41.299Z,10.63
2019-05-30T09:35:13.197Z,10.43
2019-05-30T09:37:44.092Z,9.60
2019-05-30T09:40:17.818Z,7.00
2019-05-30T09:42:49.054Z,4.47
2019-05-30T09:45:22.197Z,5.12
2019-05-30T09:47:53.109Z,15.80
2019-05-30T09:50:23.754Z,11.35
2019-05-30T09:52:54.651Z,6.37
2019-05-30T09:55:25.442Z,5.50
2019-05-30T09:57:56.167Z,4.00
2019-05-30T10:00:27.002Z,5.03
2019-05-30T10:02:57.824Z,6.08
2019-05-30T10:05:28.540Z,14.00
2019-05-30T10:07:59.602Z,4.45
2019-05-30T10:10:30.376Z,4.40
2019-05-30T10:13:01.081Z,5.42
2019-05-30T10:15:31.933Z,7.83
2019-05-30T10:18:02.702Z,5.67
2019-05-30T10:20:34.705Z,7.00
2019-05-30T10:23:05.478Z,4.60
2019-05-30T10:25:36.326Z,5.62
2019-05-30T10:28:07.087Z,5.90
2019-05-30T10:30:37.811Z,4.30
2019-05-30T10:33:08.493Z,7.28
2019-05-30T10:35:46.191Z,9.83
2019-05-30T10:38:15.363Z,3.20
2019-05-30T10:40:47.433Z,4.40
2019-05-30T10:43:18.775Z,4.78
2019-05-30T10:45:49.623Z,5.90
2019-05-30T10:48:21.013Z,5.47
2019-05-30T10:50:52.259Z,6.25
2019-05-30T10:53:23.218Z,6.72
2019-05-30T10:55:54.847Z,9.48
2019-05-30T10:58:25.823Z,6.85
2019-05-30T11:00:58.420Z,5.62
2019-05-30T11:03:29.635Z,4.78
2019-05-30T11:06:03.423Z,6.87
2019-05-30T11:11:04.253Z,5.87
2019-05-30T11:13:35.100Z,8.78
2019-05-30T11:16:05.816Z,5.92
2019-05-30T11:18:36.850Z,9.65
2019-05-30T11:21:07.869Z,5.72
2019-05-30T11:23:38.574Z,7.97
2019-05-30T11:26:09.377Z,4.75
2019-05-30T11:28:40.098Z,6.83
2019-05-30T11:31:10.907Z,6.33
2019-05-30T11:33:41.741Z,10.15
2019-05-30T11:36:12.760Z,7.22
2019-05-30T11:38:43.368Z,12.03
2019-05-30T11:41:14.021Z,9.15
2019-05-30T11:43:45.170Z,6.12
2019-05-30T11:46:16.296Z,6.37
2019-05-30T11:48:46.965Z,5.58
2019-05-30T11:51:17.789Z,7.28
2019-05-30T11:53:49.719Z,10.58
2019-05-30T11:56:20.512Z,6.72
2019-05-30T11:58:51.963Z,5.00
2019-05-30T12:01:22.818Z,4.03
2019-05-30T12:03:54.423Z,7.33
2019-05-30T12:06:25.304Z,4.83
2019-05-30T12:08:56.890Z,4.97
2019-05-30T12:11:27.622Z,6.42
2019-05-30T12:13:59.380Z,4.67
2019-05-30T12:16:30.422Z,7.67
2019-05-30T12:19:01.917Z,6.00
2019-05-30T12:21:32.983Z,4.20
2019-05-30T12:24:03.823Z,5.33
2019-05-30T12:26:34.621Z,7.15
2019-05-30T12:29:05.428Z,2.87
2019-05-30T12:31:36.060Z,4.35
2019-05-30T12:34:06.686Z,8.20
2019-05-30T12:36:37.363Z,4.70
2019-05-30T12:39:08.881Z,5.50
2019-05-30T12:41:39.685Z,3.75
2019-05-30T12:44:10.983Z,7.65
2019-05-30T12:46:42.230Z,5.62
2019-05-30T12:49:13.239Z,6.12
2019-05-30T12:51:44.034Z,4.92
2019-05-30T12:54:15.051Z,2.45
2019-05-30T12:56:45.649Z,5.55
2019-05-30T12:59:16.351Z,6.10
2019-05-30T13:01:47.045Z,4.80
2019-05-30T13:04:17.933Z,5.90
2019-05-30T13:06:48.559Z,8.60
2019-05-30T13:09:19.463Z,4.95
2019-05-30T13:11:50.109Z,4.33
2019-05-30T13:14:21.020Z,6.95
2019-05-30T13:16:51.896Z,3.90
2019-05-30T13:19:22.719Z,8.83
2019-05-30T13:21:53.956Z,5.70
2019-05-30T13:24:25.588Z,3.80
2019-05-30T13:26:57.597Z,8.48
2019-05-30T13:29:28.453Z,5.55
2019-05-30T13:32:00.398Z,3.62
2019-05-30T13:34:31.364Z,8.40
2019-05-30T13:37:02.986Z,7.30
2019-05-30T13:39:33.733Z,4.83
2019-05-30T13:42:05.732Z,4.58
2019-05-30T13:44:36.729Z,5.10
2019-05-30T13:47:08.748Z,8.45
2019-05-30T13:49:39.901Z,6.97
2019-05-30T13:52:10.658Z,7.78
2019-05-30T13:54:41.479Z,6.30
2019-05-30T13:57:12.356Z,4.72
2019-05-30T13:59:43.202Z,6.95
2019-05-30T14:02:13.929Z,10.75
2019-05-30T14:04:44.841Z,7.30
2019-05-30T14:07:15.742Z,6.55
2019-05-30T14:09:46.527Z,7.15
2019-05-30T14:12:17.543Z,5.72
2019-05-30T14:14:49.181Z,4.65
2019-05-30T14:17:20.424Z,6.80
2019-05-30T14:19:51.228Z,9.10
2019-05-30T14:22:21.845Z,7.65
2019-05-30T14:24:52.527Z,9.63
2019-05-30T14:27:23.180Z,11.12
2019-05-30T14:29:54.057Z,7.78
2019-05-30T14:32:24.688Z,7.95
2019-05-30T14:34:55.581Z,6.30
2019-05-30T14:37:26.909Z,7.80
2019-05-30T14:39:57.586Z,7.75
2019-05-30T14:42:28.283Z,9.23
2019-05-30T14:44:59.161Z,8.80
2019-05-30T14:47:30.088Z,9.43
2019-05-30T14:50:01.091Z,8.33
2019-05-30T14:52:32.784Z,8.45
2019-05-30T14:55:04.904Z,6.97
2019-05-30T14:57:35.647Z,9.70
2019-05-30T15:00:09.276Z,9.43
2019-05-30T15:02:40.300Z,9.53
2019-05-30T15:05:11.442Z,6.28
2019-05-30T15:07:42.437Z,10.15
2019-05-30T15:10:14.225Z,11.20
2019-05-30T15:12:45.378Z,11.35
2019-05-30T15:15:18.474Z,7.87
2019-05-30T15:17:49.030Z,10.45
2019-05-30T15:20:20.162Z,10.32
2019-05-30T15:22:50.244Z,9.40
2019-05-30T15:25:21.114Z,9.78
2019-05-30T15:27:52.573Z,8.15
2019-05-30T15:30:23.229Z,7.80
2019-05-30T15:32:54.158Z,12.55
2019-05-30T15:35:25.265Z,9.58
2019-05-30T15:37:56.305Z,8.30
2019-05-30T15:40:27.005Z,10.48
2019-05-30T15:42:57.900Z,10.13
2019-05-30T15:45:28.978Z,7.53
2019-05-30T15:47:59.935Z,6.58
2019-05-30T15:50:30.629Z,9.33
2019-05-30T15:53:02.266Z,7.58
2019-05-30T15:55:33.142Z,9.80
2019-05-30T15:58:03.834Z,8.50
2019-05-30T16:00:36.932Z,9.53
2019-05-30T16:03:06.566Z,7.95
2019-05-30T16:05:37.479Z,8.15
2019-05-30T16:08:08.210Z,10.13
2019-05-30T16:10:39.424Z,7.97
2019-05-30T16:13:11.450Z,9.35
2019-05-30T16:15:44.522Z,9.10
2019-05-30T16:18:15.600Z,5.22
2019-05-30T16:20:46.639Z,7.60
2019-05-30T16:23:18.716Z,8.48
2019-05-30T16:25:49.855Z,16.27
2019-05-30T16:28:21.758Z,9.40
2019-05-30T16:30:52.736Z,9.50
2019-05-30T16:33:23.482Z,7.55
2019-05-30T16:35:54.159Z,8.18
2019-05-30T16:38:24.970Z,7.87
2019-05-30T16:40:55.731Z,9.60
2019-05-30T16:43:26.599Z,8.88
2019-05-30T16:45:57.504Z,6.08
2019-05-30T16:48:28.541Z,12.70
2019-05-30T16:50:59.873Z,7.10
2019-05-30T16:53:31.801Z,7.33
2019-05-30T16:56:02.662Z,10.03
2019-05-30T16:58:33.859Z,8.48
2019-05-30T17:01:04.781Z,6.17
2019-05-30T17:03:35.600Z,7.78
2019-05-30T17:06:06.516Z,9.73
2019-05-30T17:08:37.674Z,10.98
2019-05-30T17:11:08.471Z,9.13
2019-05-30T17:13:39.385Z,5.92
2019-05-30T17:16:10.343Z,9.35
2019-05-30T17:18:41.223Z,7.08
2019-05-30T17:21:12.020Z,8.00
2019-05-30T17:23:42.858Z,9.60
2019-05-30T17:26:13.715Z,7.60
2019-05-30T17:28:44.466Z,10.40
2019-05-30T17:33:57.267Z,7.28
2019-05-30T17:36:28.408Z,8.18
2019-05-30T17:38:59.423Z,8.68
2019-05-30T17:41:30.227Z,11.55
2019-05-30T17:44:00.967Z,5.83
2019-05-30T17:46:31.726Z,8.30
2019-05-30T17:49:02.615Z,9.65
2019-05-30T17:51:33.356Z,9.35
2019-05-30T17:54:05.220Z,13.15
2019-05-30T17:56:36.069Z,9.30
2019-05-30T17:59:06.959Z,12.60
2019-05-30T18:01:37.705Z,8.45
2019-05-30T18:04:10.160Z,12.23
2019-05-30T18:06:40.737Z,8.00
2019-05-30T18:09:11.504Z,10.90
2019-05-30T18:11:42.380Z,17.10
2019-05-30T18:14:13.053Z,14.73
2019-05-30T18:16:43.786Z,8.73
2019-05-30T18:19:14.479Z,8.15
2019-05-30T18:21:45.594Z,9.35
2019-05-30T18:24:16.318Z,8.20
2019-05-30T18:26:47.057Z,8.93
2019-05-30T18:29:19.019Z,6.85
2019-05-30T18:31:49.954Z,7.92
2019-05-30T18:34:22.215Z,9.38
2019-05-30T18:36:52.816Z,6.80
2019-05-30T18:39:24.415Z,11.05
2019-05-30T18:41:55.248Z,7.55
2019-05-30T18:44:28.808Z,9.83
2019-05-30T18:46:58.579Z,9.58
2019-05-30T18:49:29.862Z,14.07
2019-05-30T18:52:00.671Z,9.33
2019-05-30T18:54:32.816Z,9.43
2019-05-30T18:57:05.269Z,8.28
2019-05-30T18:59:37.283Z,9.53
2019-05-30T19:02:08.261Z,10.70
2019-05-30T19:04:39.133Z,11.78
2019-05-30T19:07:09.995Z,14.93
2019-05-30T19:09:40.702Z,6.55
2019-05-30T19:12:11.578Z,7.42
2019-05-30T19:14:42.623Z,9.00
2019-05-30T19:17:13.438Z,9.18
2019-05-30T19:19:44.709Z,10.32
2019-05-30T19:22:15.573Z,11.08
2019-05-30T19:24:46.407Z,8.68
2019-05-30T19:27:17.165Z,12.53
2019-05-30T19:29:48.070Z,12.65
2019-05-30T19:32:18.882Z,16.80
2019-05-30T19:34:49.514Z,12.63
2019-05-30T19:37:20.600Z,12.37
2019-05-30T19:39:51.560Z,10.58
2019-05-30T19:42:22.570Z,9.60
2019-05-30T19:44:53.484Z,10.58
2019-05-30T19:47:24.330Z,13.15
2019-05-30T19:49:55.099Z,10.82
2019-05-30T19:52:26.021Z,13.55
2019-05-30T19:54:56.826Z,15.78
2019-05-30T19:57:27.577Z,13.28
2019-05-30T19:59:58.471Z,16.23
2019-05-30T20:02:29.897Z,12.07
2019-05-30T20:05:00.740Z,12.33
2019-05-30T20:07:32.403Z,8.80
2019-05-30T20:10:03.382Z,11.20
2019-05-30T20:12:34.797Z,7.85
2019-05-30T20:15:07.212Z,7.55
2019-05-30T20:17:37.908Z,9.05
2019-05-30T20:20:08.939Z,12.20
2019-05-30T20:22:40.206Z,12.82
2019-05-30T20:25:11.474Z,9.68
2019-05-30T20:27:43.145Z,17.02
2019-05-30T20:30:14.497Z,11.85
2019-05-30T20:32:45.392Z,8.95
2019-05-30T20:35:16.292Z,8.38
2019-05-30T20:37:47.174Z,34.90
2019-05-30T20:40:18.389Z,14.00
2019-05-30T20:42:48.980Z,9.63
2019-05-30T20:45:20.580Z,16.37
2019-05-30T20:47:51.288Z,9.75
2019-05-30T20:50:22.535Z,10.00
2019-05-30T20:52:53.644Z,11.18
2019-05-30T20:55:24.461Z,13.45
2019-05-30T20:57:55.147Z,11.63
2019-05-30T21:00:28.704Z,8.03
2019-05-30T21:02:59.609Z,8.35
2019-05-30T21:05:30.897Z,9.50
2019-05-30T21:08:01.507Z,9.03
2019-05-30T21:10:33.408Z,10.45
2019-05-30T21:13:04.082Z,16.20
2019-05-30T21:15:37.524Z,7.78
2019-05-30T21:18:08.599Z,9.45
2019-05-30T21:20:40.035Z,12.45
2019-05-30T21:23:10.991Z,15.20
2019-05-30T21:25:43.065Z,13.62
2019-05-30T21:28:13.897Z,10.10
2019-05-30T21:30:45.415Z,9.88
2019-05-30T21:33:16.520Z,7.92
2019-05-30T21:35:48.099Z,10.85
2019-05-30T21:38:18.900Z,11.75
2019-05-30T21:40:49.690Z,9.70
2019-05-30T21:43:20.386Z,9.18
2019-05-30T21:45:51.018Z,10.50
2019-05-30T21:48:21.748Z,10.90
2019-05-30T21:50:52.471Z,11.60
2019-05-30T21:53:23.260Z,13.40
2019-05-30T21:55:54.021Z,11.90
2019-05-30T21:58:25.012Z,11.20
2019-05-30T22:00:58.808Z,9.25
2019-05-30T22:03:29.463Z,12.45
2019-05-30T22:06:00.504Z,11.35
2019-05-30T22:08:31.501Z,9.50
2019-05-30T22:11:02.286Z,11.40
2019-05-30T22:13:33.122Z,14.10
2019-05-30T22:16:03.880Z,10.03
2019-05-30T22:18:34.570Z,9.50
2019-05-30T22:21:05.379Z,12.55
2019-05-30T22:23:36.140Z,10.05
2019-05-30T22:26:06.896Z,13.22
2019-05-30T22:28:37.763Z,12.98
2019-05-30T22:31:08.618Z,13.43
2019-05-30T22:33:39.295Z,13.78
2019-05-30T22:36:09.980Z,12.18
2019-05-30T22:38:40.823Z,15.70
2019-05-30T22:41:11.559Z,16.70
2019-05-30T22:43:42.237Z,13.83
2019-05-30T22:46:13.004Z,14.83
2019-05-30T22:48:44.374Z,16.07
2019-05-30T22:51:15.404Z,15.60
2019-05-30T22:53:47.045Z,14.83
2019-05-30T22:56:17.704Z,14.47
2019-05-30T22:58:49.900Z,12.68
2019-05-30T23:01:20.401Z,13.83
2019-05-30T23:03:52.261Z,11.03
2019-05-30T23:06:23.107Z,15.75
2019-05-30T23:08:54.884Z,12.03
2019-05-30T23:11:25.759Z,12.37
2019-05-30T23:13:56.453Z,13.18
2019-05-30T23:16:27.149Z,12.28
2019-05-30T23:18:57.894Z,11.22
2019-05-30T23:21:28.518Z,13.95
2019-05-30T23:23:59.267Z,10.43
2019-05-30T23:26:29.914Z,15.25
2019-05-30T23:29:00.645Z,9.00
2019-05-30T23:31:31.366Z,12.73
2019-05-30T23:34:02.057Z,20.40
2019-05-30T23:36:32.811Z,10.58
2019-05-30T23:39:03.561Z,10.40
2019-05-30T23:41:34.351Z,10.15
2019-05-30T23:44:11.258Z,11.30
2019-05-30T23:46:37.362Z,13.65
2019-05-30T23:49:08.201Z,10.90
2019-05-30T23:51:39.063Z,13.48
2019-05-30T23:54:09.721Z,13.08
2019-05-30T23:56:42.369Z,11.57
2019-05-30T23:59:12.489Z,13.72
